createdAt,value
2016-12-31T00:00:42.619Z,92.33
2016-12-31T00:01:42.631Z,92.33
2016-12-31T00:02:42.641Z,92.33
2016-12-31T00:03:42.656Z,92.43
2016-12-31T00:04:42.662Z,92.61
2016-12-31T00:05:42.671Z,92.9
2016-12-31T00:06:42.684Z,92.99
2016-12-31T00:07:42.687Z,93.28
2016-12-31T00:08:42.706Z,93.37
2016-12-31T00:09:42.718Z,93.47
2016-12-31T00:10:42.720Z,93.66
2016-12-31T00:11:42.736Z,93.66
2016-12-31T00:12:42.738Z,93.56
2016-12-31T00:13:42.758Z,93.47
2016-12-31T00:14:42.759Z,93.47
2016-12-31T00:15:42.771Z,93.47
2016-12-31T00:16:42.776Z,93.09
2016-12-31T00:17:42.880Z,92.9
2016-12-31T00:18:42.807Z,92.8
2016-12-31T00:19:42.819Z,92.71
2016-12-31T00:20:42.818Z,92.61
2016-12-31T00:21:42.834Z,92.61
2016-12-31T00:22:42.846Z,92.71
2016-12-31T00:23:42.854Z,92.8
2016-12-31T00:24:42.861Z,92.8
2016-12-31T00:25:42.883Z,92.8
2016-12-31T00:26:42.881Z,92.9
2016-12-31T00:27:42.895Z,92.9
2016-12-31T00:28:42.906Z,92.99
2016-12-31T00:29:42.912Z,93.09
2016-12-31T00:30:42.919Z,93.37
2016-12-31T00:31:42.934Z,93.66
2016-12-31T00:32:42.945Z,93.75
2016-12-31T00:33:42.960Z,93.66
2016-12-31T00:34:42.971Z,93.56
2016-12-31T00:35:42.977Z,93.47
2016-12-31T00:36:42.987Z,93.56
2016-12-31T00:37:43.001Z,93.75
2016-12-31T00:38:43.012Z,94.13
2016-12-31T00:39:43.018Z,94.7
2016-12-31T00:40:43.036Z,95.07
2016-12-31T00:41:43.033Z,95.36
2016-12-31T00:42:43.049Z,95.73
2016-12-31T00:43:43.063Z,95.92
2016-12-31T00:44:43.068Z,96.01
2016-12-31T00:45:43.080Z,95.92
2016-12-31T00:46:43.087Z,95.92
2016-12-31T00:47:43.101Z,95.92
2016-12-31T00:48:43.102Z,95.92
2016-12-31T00:49:43.119Z,95.83
2016-12-31T00:50:43.134Z,95.92
2016-12-31T00:51:43.135Z,95.83
2016-12-31T00:52:43.140Z,95.92
2016-12-31T00:53:43.154Z,95.92
2016-12-31T00:54:43.168Z,95.83
2016-12-31T00:55:43.178Z,95.64
2016-12-31T00:56:43.187Z,95.36
2016-12-31T00:57:43.225Z,95.17
2016-12-31T00:58:43.210Z,95.07
2016-12-31T00:59:43.221Z,95.07
2016-12-31T01:00:43.221Z,95.07
2016-12-31T01:01:43.233Z,95.26
2016-12-31T01:02:43.243Z,95.36
2016-12-31T01:03:43.256Z,95.45
2016-12-31T01:04:43.267Z,95.45
2016-12-31T01:05:43.275Z,95.45
2016-12-31T01:06:43.287Z,95.45
2016-12-31T01:07:43.294Z,95.73
2016-12-31T01:08:43.306Z,96.01
2016-12-31T01:09:43.320Z,96.11
2016-12-31T01:10:43.320Z,96.11
2016-12-31T01:11:43.337Z,96.01
2016-12-31T01:12:43.341Z,96.01
2016-12-31T01:13:43.356Z,95.83
2016-12-31T01:14:43.365Z,95.83
2016-12-31T01:15:43.370Z,95.83
2016-12-31T01:16:43.388Z,95.92
2016-12-31T01:17:43.394Z,95.92
2016-12-31T01:18:43.399Z,96.01
2016-12-31T01:19:43.411Z,96.2
2016-12-31T01:20:43.422Z,96.2
2016-12-31T01:21:43.427Z,96.39
2016-12-31T01:22:43.442Z,96.39
2016-12-31T01:23:43.451Z,96.39
2016-12-31T01:24:43.461Z,96.3
2016-12-31T01:25:43.465Z,96.2
2016-12-31T01:26:43.486Z,96.01
2016-12-31T01:27:43.489Z,95.92
2016-12-31T01:28:43.496Z,95.83
2016-12-31T01:29:43.505Z,95.92
2016-12-31T01:30:43.519Z,95.83
2016-12-31T01:31:43.521Z,95.83
2016-12-31T01:32:43.534Z,95.64
2016-12-31T01:33:43.543Z,95.54
2016-12-31T01:34:43.557Z,95.36
2016-12-31T01:35:43.557Z,95.26
2016-12-31T01:36:43.577Z,95.26
2016-12-31T01:37:43.580Z,95.26
2016-12-31T01:38:43.596Z,95.26
2016-12-31T01:39:43.607Z,95.07
2016-12-31T01:40:43.614Z,94.98
2016-12-31T01:41:43.647Z,94.98
2016-12-31T01:42:43.634Z,94.98
2016-12-31T01:43:43.645Z,94.98
2016-12-31T01:44:43.649Z,94.98
2016-12-31T01:45:43.662Z,94.98
2016-12-31T01:46:43.669Z,94.98
2016-12-31T01:47:43.669Z,94.89
2016-12-31T01:48:43.682Z,94.79
2016-12-31T01:49:43.702Z,94.7
2016-12-31T01:50:43.701Z,94.7
2016-12-31T01:51:43.720Z,94.89
2016-12-31T01:52:43.721Z,94.89
2016-12-31T01:53:43.736Z,94.79
2016-12-31T01:54:43.745Z,94.6
2016-12-31T01:55:43.751Z,94.41
2016-12-31T01:56:43.765Z,94.32
2016-12-31T01:57:43.766Z,94.22
2016-12-31T01:58:43.785Z,94.03
2016-12-31T01:59:43.796Z,94.03
2016-12-31T02:00:43.831Z,93.94
2016-12-31T02:01:43.814Z,93.94
2016-12-31T02:02:43.821Z,93.84
2016-12-31T02:03:43.830Z,93.75
2016-12-31T02:04:43.846Z,93.75
2016-12-31T02:05:43.936Z,93.66
2016-12-31T02:06:43.856Z,93.66
2016-12-31T02:07:43.865Z,93.56
2016-12-31T02:08:43.872Z,93.47
2016-12-31T02:09:43.889Z,93.37
2016-12-31T02:10:43.900Z,93.47
2016-12-31T02:11:43.905Z,93.47
2016-12-31T02:12:43.916Z,93.37
2016-12-31T02:13:43.923Z,93.37
2016-12-31T02:14:43.940Z,93.28
2016-12-31T02:15:43.947Z,93.18
2016-12-31T02:16:43.959Z,93.09
2016-12-31T02:17:43.965Z,93.09
2016-12-31T02:18:43.972Z,93.09
2016-12-31T02:19:43.989Z,92.99
2016-12-31T02:20:43.994Z,92.99
2016-12-31T02:21:44.003Z,92.99
2016-12-31T02:22:44.007Z,92.9
2016-12-31T02:23:44.015Z,92.8
2016-12-31T02:24:44.032Z,92.8
2016-12-31T02:25:44.040Z,92.71
2016-12-31T02:26:44.053Z,92.71
2016-12-31T02:27:44.067Z,92.61
2016-12-31T02:28:44.065Z,92.61
2016-12-31T02:29:44.081Z,92.61
2016-12-31T02:30:44.094Z,92.61
2016-12-31T02:31:44.094Z,92.61
2016-12-31T02:32:44.107Z,92.61
2016-12-31T02:33:44.119Z,92.52
2016-12-31T02:34:44.126Z,92.52
2016-12-31T02:35:44.128Z,92.43
2016-12-31T02:36:44.136Z,92.43
2016-12-31T02:37:44.152Z,92.52
2016-12-31T02:38:44.163Z,92.52
2016-12-31T02:39:44.200Z,92.43
2016-12-31T02:40:44.185Z,92.33
2016-12-31T02:41:44.188Z,92.52
2016-12-31T02:42:44.205Z,92.61
2016-12-31T02:43:44.208Z,92.61
2016-12-31T02:44:44.219Z,92.61
2016-12-31T02:45:44.225Z,92.61
2016-12-31T02:46:44.236Z,92.52
2016-12-31T02:47:44.252Z,92.52
2016-12-31T02:48:44.254Z,92.52
2016-12-31T02:49:44.270Z,92.52
2016-12-31T02:50:44.284Z,92.61
2016-12-31T02:51:44.287Z,92.71
2016-12-31T02:52:44.298Z,92.8
2016-12-31T02:53:44.304Z,92.9
2016-12-31T02:54:44.317Z,92.9
2016-12-31T02:55:44.324Z,92.9
2016-12-31T02:56:44.333Z,92.9
2016-12-31T02:57:44.346Z,92.99
2016-12-31T02:58:44.358Z,92.9
2016-12-31T02:59:44.357Z,92.9
2016-12-31T03:00:44.369Z,92.9
2016-12-31T03:01:44.385Z,92.9
2016-12-31T03:02:44.390Z,92.8
2016-12-31T03:03:44.402Z,92.71
2016-12-31T03:04:44.433Z,92.71
2016-12-31T03:05:44.415Z,92.61
2016-12-31T03:06:44.423Z,92.52
2016-12-31T03:07:44.439Z,92.52
2016-12-31T03:08:44.448Z,92.52
2016-12-31T03:09:44.456Z,92.33
2016-12-31T03:10:44.459Z,92.33
2016-12-31T03:11:44.502Z,92.33
2016-12-31T03:12:44.486Z,92.33
2016-12-31T03:13:44.497Z,92.43
2016-12-31T03:14:44.504Z,92.43
2016-12-31T03:15:44.517Z,92.52
2016-12-31T03:16:44.520Z,92.52
2016-12-31T03:17:44.534Z,92.52
2016-12-31T03:18:44.538Z,92.43
2016-12-31T03:19:44.545Z,92.43
2016-12-31T03:20:44.553Z,92.43
2016-12-31T03:21:44.567Z,92.33
2016-12-31T03:22:44.580Z,92.33
2016-12-31T03:23:44.589Z,92.43
2016-12-31T03:24:44.601Z,92.43
2016-12-31T03:25:44.607Z,92.43
2016-12-31T03:26:44.639Z,92.33
2016-12-31T03:27:44.628Z,92.33
2016-12-31T03:28:44.632Z,92.33
2016-12-31T03:29:44.641Z,92.33
2016-12-31T03:30:44.653Z,92.33
2016-12-31T03:31:44.657Z,92.43
2016-12-31T03:32:44.678Z,92.43
2016-12-31T03:33:44.678Z,92.52
2016-12-31T03:34:44.684Z,92.52
2016-12-31T03:35:44.707Z,92.61
2016-12-31T03:36:44.712Z,92.71
2016-12-31T03:37:44.712Z,92.8
2016-12-31T03:38:44.728Z,92.9
2016-12-31T03:39:44.741Z,93.09
2016-12-31T03:40:44.776Z,93.09
2016-12-31T03:41:44.756Z,93.09
2016-12-31T03:42:44.767Z,93.18
2016-12-31T03:43:44.776Z,93.28
2016-12-31T03:44:44.781Z,93.28
2016-12-31T03:45:44.824Z,93.28
2016-12-31T03:46:44.807Z,93.28
2016-12-31T03:47:44.813Z,93.37
2016-12-31T03:48:44.819Z,93.42
2016-12-31T03:49:44.832Z,93.51
2016-12-31T03:50:44.853Z,93.61
2016-12-31T03:51:44.851Z,93.61
2016-12-31T03:52:44.857Z,93.8
2016-12-31T03:53:44.872Z,93.89
2016-12-31T03:54:44.878Z,93.89
2016-12-31T03:55:44.883Z,93.94
2016-12-31T03:56:44.905Z,93.99
2016-12-31T03:57:44.996Z,93.99
2016-12-31T03:58:44.921Z,93.99
2016-12-31T03:59:44.925Z,94.08
2016-12-31T04:01:44.931Z,94.27
2016-12-31T04:02:44.940Z,94.27
2016-12-31T04:03:44.960Z,94.36
2016-12-31T04:04:44.962Z,94.36
2016-12-31T04:05:44.972Z,94.36
2016-12-31T04:06:44.976Z,94.36
2016-12-31T04:07:44.997Z,94.46
2016-12-31T04:08:44.998Z,94.55
2016-12-31T04:09:45.004Z,94.65
2016-12-31T04:10:45.020Z,94.65
2016-12-31T04:11:45.057Z,94.74
2016-12-31T04:12:45.034Z,94.65
2016-12-31T04:13:45.041Z,94.74
2016-12-31T04:14:45.053Z,94.93
2016-12-31T04:15:45.070Z,94.93
2016-12-31T04:16:45.076Z,94.93
2016-12-31T04:17:45.081Z,94.74
2016-12-31T04:18:45.092Z,94.65
2016-12-31T04:19:45.103Z,94.84
2016-12-31T04:20:45.112Z,94.84
2016-12-31T04:21:45.116Z,94.84
2016-12-31T04:22:45.135Z,95.03
2016-12-31T04:23:45.139Z,95.12
2016-12-31T04:24:45.148Z,95.17
2016-12-31T04:25:45.154Z,95.21
2016-12-31T04:26:45.173Z,95.26
2016-12-31T04:27:45.180Z,95.26
2016-12-31T04:28:45.185Z,95.17
2016-12-31T04:29:45.189Z,95.12
2016-12-31T04:30:45.202Z,95.12
2016-12-31T04:31:45.218Z,95.12
2016-12-31T04:32:45.227Z,95.21
2016-12-31T04:33:45.228Z,95.21
2016-12-31T04:34:45.240Z,95.21
2016-12-31T04:35:45.249Z,95.21
2016-12-31T04:36:45.254Z,95.21
2016-12-31T04:37:45.269Z,95.31
2016-12-31T04:38:45.277Z,95.21
2016-12-31T04:39:45.286Z,95.03
2016-12-31T04:40:45.300Z,94.84
2016-12-31T04:41:45.304Z,94.93
2016-12-31T04:42:45.309Z,95.03
2016-12-31T04:43:45.318Z,95.12
2016-12-31T04:44:45.329Z,95.21
2016-12-31T04:45:45.343Z,95.21
2016-12-31T04:46:45.363Z,95.31
2016-12-31T04:47:45.353Z,95.31
2016-12-31T04:48:45.362Z,95.31
2016-12-31T04:49:45.376Z,95.21
2016-12-31T04:50:45.381Z,95.12
2016-12-31T04:51:45.401Z,95.21
2016-12-31T04:52:45.410Z,95.21
2016-12-31T04:53:45.414Z,95.4
2016-12-31T04:54:45.424Z,95.4
2016-12-31T04:55:45.439Z,95.4
2016-12-31T04:56:45.446Z,95.31
2016-12-31T04:57:45.452Z,95.31
2016-12-31T04:58:45.461Z,95.4
2016-12-31T04:59:45.474Z,95.59
2016-12-31T05:00:45.478Z,95.68
2016-12-31T05:01:45.494Z,95.78
2016-12-31T05:02:45.499Z,95.97
2016-12-31T05:03:45.507Z,96.06
2016-12-31T05:04:45.511Z,96.06
2016-12-31T05:05:45.529Z,95.97
2016-12-31T05:06:45.533Z,95.68
2016-12-31T05:07:45.547Z,95.5
2016-12-31T05:08:45.554Z,95.4
2016-12-31T05:09:45.560Z,95.4
2016-12-31T05:10:45.569Z,95.31
2016-12-31T05:11:45.581Z,95.31
2016-12-31T05:12:45.589Z,95.4
2016-12-31T05:13:45.597Z,95.4
2016-12-31T05:14:45.613Z,95.31
2016-12-31T05:15:45.705Z,95.31
2016-12-31T05:16:45.630Z,95.21
2016-12-31T05:17:45.635Z,95.21
2016-12-31T05:18:45.641Z,95.21
2016-12-31T05:19:45.654Z,95.21
2016-12-31T05:20:45.659Z,95.31
2016-12-31T05:21:45.675Z,95.31
2016-12-31T05:22:45.752Z,95.4
2016-12-31T05:23:45.693Z,95.4
2016-12-31T05:24:45.703Z,95.5
2016-12-31T05:25:45.716Z,95.68
2016-12-31T05:26:45.715Z,95.87
2016-12-31T05:27:45.730Z,95.97
2016-12-31T05:28:45.738Z,96.06
2016-12-31T05:29:45.747Z,96.15
2016-12-31T05:30:45.760Z,96.25
2016-12-31T05:31:45.769Z,96.25
2016-12-31T05:32:45.778Z,96.25
2016-12-31T05:33:45.785Z,96.25
2016-12-31T05:34:45.791Z,96.25
2016-12-31T05:35:45.809Z,96.34
2016-12-31T05:36:45.818Z,96.34
2016-12-31T05:37:45.827Z,96.34
2016-12-31T05:38:45.836Z,96.34
2016-12-31T05:39:45.843Z,96.25
2016-12-31T05:40:45.846Z,96.25
2016-12-31T05:41:45.857Z,96.15
2016-12-31T05:42:45.872Z,96.15
2016-12-31T05:43:45.870Z,96.06
2016-12-31T05:44:45.883Z,95.97
2016-12-31T05:45:45.890Z,95.97
2016-12-31T05:46:45.897Z,95.87
2016-12-31T05:47:45.904Z,95.87
2016-12-31T05:48:45.918Z,95.87
2016-12-31T05:49:45.928Z,95.78
2016-12-31T05:50:45.935Z,95.59
2016-12-31T05:51:45.947Z,95.5
2016-12-31T05:52:45.960Z,95.4
2016-12-31T05:53:45.961Z,95.21
2016-12-31T05:54:45.975Z,95.21
2016-12-31T05:55:45.977Z,95.21
2016-12-31T05:56:46.020Z,95.31
2016-12-31T05:57:45.997Z,95.4
2016-12-31T05:58:46.010Z,95.4
2016-12-31T05:59:46.014Z,95.31
2016-12-31T06:00:46.025Z,95.31
2016-12-31T06:01:46.033Z,95.31
2016-12-31T06:02:46.046Z,95.4
2016-12-31T06:03:46.054Z,95.4
2016-12-31T06:04:46.060Z,95.4
2016-12-31T06:05:46.066Z,95.4
2016-12-31T06:06:46.081Z,95.4
2016-12-31T06:07:46.086Z,95.31
2016-12-31T06:08:46.092Z,95.31
2016-12-31T06:09:46.099Z,95.31
2016-12-31T06:10:46.109Z,95.31
2016-12-31T06:11:46.119Z,95.31
2016-12-31T06:12:46.136Z,95.31
2016-12-31T06:13:46.137Z,95.5
2016-12-31T06:14:46.157Z,95.78
2016-12-31T06:15:46.155Z,95.78
2016-12-31T06:16:46.163Z,95.78
2016-12-31T06:17:46.180Z,95.78
2016-12-31T06:18:46.188Z,95.68
2016-12-31T06:19:46.194Z,95.59
2016-12-31T06:20:46.203Z,95.5
2016-12-31T06:21:46.211Z,95.4
2016-12-31T06:22:46.220Z,95.31
2016-12-31T06:23:46.236Z,95.31
2016-12-31T06:24:46.235Z,95.21
2016-12-31T06:25:46.252Z,95.21
2016-12-31T06:26:46.254Z,95.31
2016-12-31T06:27:46.270Z,95.5
2016-12-31T06:28:46.276Z,95.59
2016-12-31T06:29:46.288Z,95.68
2016-12-31T06:30:46.293Z,95.68
2016-12-31T06:31:46.298Z,95.68
2016-12-31T06:32:46.305Z,95.78
2016-12-31T06:33:46.323Z,95.78
2016-12-31T06:34:46.328Z,95.78
2016-12-31T06:35:46.337Z,95.78
2016-12-31T06:36:46.343Z,95.59
2016-12-31T06:37:46.354Z,95.5
2016-12-31T06:38:46.365Z,95.4
2016-12-31T06:39:46.378Z,95.31
2016-12-31T06:40:46.375Z,95.21
2016-12-31T06:41:46.398Z,95.21
2016-12-31T06:42:46.397Z,95.4
2016-12-31T06:43:46.403Z,95.5
2016-12-31T06:44:46.416Z,95.59
2016-12-31T06:45:46.427Z,95.59
2016-12-31T06:46:46.430Z,95.59
2016-12-31T06:47:46.440Z,95.59
2016-12-31T06:48:46.459Z,95.5
2016-12-31T06:49:46.464Z,95.5
2016-12-31T06:50:46.470Z,95.59
2016-12-31T06:51:46.486Z,95.59
2016-12-31T06:52:46.496Z,95.59
2016-12-31T06:53:46.501Z,95.5
2016-12-31T06:54:46.509Z,95.59
2016-12-31T06:55:46.524Z,95.59
2016-12-31T06:56:46.528Z,95.68
2016-12-31T06:57:46.531Z,95.78
2016-12-31T06:58:46.547Z,95.87
2016-12-31T06:59:46.559Z,95.87
2016-12-31T07:00:46.564Z,95.87
2016-12-31T07:01:46.575Z,95.87
2016-12-31T07:02:46.586Z,95.97
2016-12-31T07:03:46.588Z,95.97
2016-12-31T07:04:46.593Z,95.97
2016-12-31T07:05:46.609Z,95.97
2016-12-31T07:06:46.623Z,95.97
2016-12-31T07:07:46.619Z,95.97
2016-12-31T07:08:46.629Z,95.97
2016-12-31T07:09:46.639Z,96.06
2016-12-31T07:10:46.652Z,96.15
2016-12-31T07:11:46.656Z,96.25
2016-12-31T07:12:46.692Z,96.34
2016-12-31T07:13:46.679Z,96.34
2016-12-31T07:14:46.688Z,96.34
2016-12-31T07:15:46.701Z,96.34
2016-12-31T07:16:46.709Z,96.34
2016-12-31T07:17:46.711Z,96.34
2016-12-31T07:18:46.726Z,96.25
2016-12-31T07:19:46.774Z,96.25
2016-12-31T07:20:46.754Z,96.25
2016-12-31T07:21:46.747Z,96.34
2016-12-31T07:22:46.758Z,96.34
2016-12-31T07:23:46.761Z,96.34
2016-12-31T07:24:46.779Z,96.25
2016-12-31T07:25:46.782Z,96.25
2016-12-31T07:26:46.793Z,96.15
2016-12-31T07:27:46.800Z,96.15
2016-12-31T07:28:46.807Z,96.06
2016-12-31T07:29:46.818Z,96.15
2016-12-31T07:30:46.823Z,96.15
2016-12-31T07:31:46.835Z,96.15
2016-12-31T07:32:46.844Z,96.25
2016-12-31T07:33:46.861Z,96.34
2016-12-31T07:34:46.866Z,96.34
2016-12-31T07:35:46.872Z,96.34
2016-12-31T07:36:46.886Z,96.25
2016-12-31T07:37:46.891Z,96.15
2016-12-31T07:38:46.904Z,96.06
2016-12-31T07:39:46.915Z,95.97
2016-12-31T07:40:46.918Z,95.87
2016-12-31T07:41:46.931Z,95.97
2016-12-31T07:42:46.938Z,95.87
2016-12-31T07:43:46.944Z,95.78
2016-12-31T07:44:46.956Z,95.68
2016-12-31T07:45:47.046Z,95.59
2016-12-31T07:46:46.976Z,95.68
2016-12-31T07:47:46.975Z,95.68
2016-12-31T07:48:46.989Z,95.68
2016-12-31T07:49:47.001Z,95.68
2016-12-31T07:50:47.009Z,95.68
2016-12-31T07:51:47.020Z,95.78
2016-12-31T07:52:47.029Z,95.78
2016-12-31T07:53:47.039Z,95.68
2016-12-31T07:54:47.047Z,95.59
2016-12-31T07:55:47.050Z,95.4
2016-12-31T07:56:47.057Z,95.21
2016-12-31T07:57:47.078Z,95.12
2016-12-31T07:58:47.081Z,95.03
2016-12-31T07:59:47.092Z,95.12
2016-12-31T08:00:47.098Z,95.21
2016-12-31T08:01:47.114Z,95.21
2016-12-31T08:02:47.113Z,95.21
2016-12-31T08:03:47.140Z,95.21
2016-12-31T08:04:47.140Z,95.21
2016-12-31T08:05:47.153Z,95.21
2016-12-31T08:06:47.161Z,95.21
2016-12-31T08:07:47.169Z,95.21
2016-12-31T08:08:47.173Z,95.21
2016-12-31T08:09:47.188Z,95.21
2016-12-31T08:10:47.199Z,95.12
2016-12-31T08:11:47.196Z,95.03
2016-12-31T08:12:47.215Z,95.03
2016-12-31T08:13:47.219Z,94.98
2016-12-31T08:14:47.227Z,94.98
2016-12-31T08:15:47.238Z,94.98
2016-12-31T08:16:47.250Z,94.98
2016-12-31T08:17:47.263Z,94.89
2016-12-31T08:18:47.265Z,94.89
2016-12-31T08:19:47.283Z,94.89
2016-12-31T08:20:47.283Z,94.89
2016-12-31T08:21:47.300Z,94.89
2016-12-31T08:22:47.308Z,94.98
2016-12-31T08:23:47.325Z,94.98
2016-12-31T08:24:47.326Z,94.98
2016-12-31T08:25:47.333Z,94.89
2016-12-31T08:26:47.415Z,94.89
2016-12-31T08:27:47.358Z,94.89
2016-12-31T08:28:47.363Z,94.79
2016-12-31T08:29:47.373Z,94.79
2016-12-31T08:30:47.386Z,94.7
2016-12-31T08:31:47.393Z,94.7
2016-12-31T08:32:47.405Z,94.6
2016-12-31T08:33:47.417Z,94.51
2016-12-31T08:34:47.426Z,94.41
2016-12-31T08:35:47.438Z,94.22
2016-12-31T08:36:47.444Z,94.03
2016-12-31T08:37:47.452Z,93.84
2016-12-31T08:38:47.469Z,93.66
2016-12-31T08:39:47.475Z,93.47
2016-12-31T08:40:47.477Z,93.37
2016-12-31T08:41:47.581Z,93.37
2016-12-31T08:42:47.511Z,93.28
2016-12-31T08:43:47.518Z,93.28
2016-12-31T08:44:47.518Z,93.18
2016-12-31T08:45:47.533Z,93.18
2016-12-31T08:46:47.547Z,93.09
2016-12-31T08:47:47.558Z,93.09
2016-12-31T08:48:47.569Z,93.09
2016-12-31T08:49:47.575Z,92.9
2016-12-31T08:50:47.583Z,92.71
2016-12-31T08:51:47.597Z,92.52
2016-12-31T08:52:47.605Z,92.43
2016-12-31T08:53:47.616Z,92.14
2016-12-31T08:54:47.625Z,91.96
2016-12-31T08:55:47.630Z,91.77
2016-12-31T08:56:47.644Z,91.58
2016-12-31T08:57:47.656Z,91.49
2016-12-31T08:58:47.665Z,91.3
2016-12-31T08:59:47.672Z,91.11
2016-12-31T09:00:47.686Z,90.82
2016-12-31T09:01:47.698Z,90.68
2016-12-31T09:02:47.708Z,90.54
2016-12-31T09:03:47.714Z,90.77
2016-12-31T09:04:47.727Z,90.96
2016-12-31T09:05:47.738Z,91.25
2016-12-31T09:06:47.756Z,91.53
2016-12-31T09:07:47.758Z,91.72
2016-12-31T09:08:47.772Z,91.82
2016-12-31T09:09:47.780Z,91.63
2016-12-31T09:10:47.797Z,91.53
2016-12-31T09:11:47.806Z,91.53
2016-12-31T09:12:47.815Z,91.53
2016-12-31T09:13:47.823Z,91.63
2016-12-31T09:14:47.827Z,91.53
2016-12-31T09:15:47.839Z,91.53
2016-12-31T09:16:47.860Z,91.53
2016-12-31T09:17:47.861Z,91.44
2016-12-31T09:18:47.878Z,91.34
2016-12-31T09:19:47.890Z,91.34
2016-12-31T09:20:47.899Z,91.25
2016-12-31T09:21:47.907Z,91.15
2016-12-31T09:22:47.924Z,91.06
2016-12-31T09:23:47.928Z,91.06
2016-12-31T09:24:47.941Z,91.01
2016-12-31T09:25:47.958Z,90.91
2016-12-31T09:26:47.966Z,90.91
2016-12-31T09:27:47.973Z,90.82
2016-12-31T09:28:47.980Z,90.82
2016-12-31T09:29:48.079Z,90.73
2016-12-31T09:30:48.003Z,90.73
2016-12-31T09:31:48.016Z,90.63
2016-12-31T09:32:48.022Z,90.44
2016-12-31T09:33:48.041Z,90.25
2016-12-31T09:34:48.075Z,90.06
2016-12-31T09:35:48.064Z,89.78
2016-12-31T09:36:48.068Z,89.5
2016-12-31T09:37:48.082Z,89.31
2016-12-31T09:38:48.090Z,89.12
2016-12-31T09:39:48.104Z,88.93
2016-12-31T09:40:48.126Z,88.74
2016-12-31T09:41:48.129Z,88.55
2016-12-31T09:42:48.146Z,88.46
2016-12-31T09:43:48.155Z,88.36
2016-12-31T09:44:48.164Z,88.27
2016-12-31T09:45:48.171Z,87.98
2016-12-31T09:46:48.188Z,87.65
2016-12-31T09:47:48.195Z,87.46
2016-12-31T09:48:48.201Z,87.37
2016-12-31T09:49:48.221Z,87.27
2016-12-31T09:50:48.231Z,87.18
2016-12-31T09:51:48.241Z,87.08
2016-12-31T09:52:48.256Z,86.99
2016-12-31T09:53:48.269Z,86.8
2016-12-31T09:54:48.278Z,86.71
2016-12-31T09:55:48.284Z,86.61
2016-12-31T09:56:48.292Z,86.42
2016-12-31T09:57:48.308Z,86.33
2016-12-31T09:58:48.323Z,86.23
2016-12-31T09:59:48.382Z,86.04
2016-12-31T10:00:48.351Z,85.95
2016-12-31T10:01:48.353Z,85.76
2016-12-31T10:02:48.373Z,85.66
2016-12-31T10:03:48.387Z,85.47
2016-12-31T10:04:48.396Z,85.47
2016-12-31T10:05:48.404Z,85.47
2016-12-31T10:06:48.417Z,85.38
2016-12-31T10:07:48.429Z,85.38
2016-12-31T10:08:48.439Z,85.19
2016-12-31T10:09:48.457Z,85
2016-12-31T10:10:48.465Z,84.91
2016-12-31T10:11:48.470Z,84.91
2016-12-31T10:12:48.482Z,84.91
2016-12-31T10:13:48.500Z,84.91
2016-12-31T10:14:48.505Z,84.91
2016-12-31T10:15:48.517Z,85
2016-12-31T10:16:48.540Z,84.91
2016-12-31T10:17:48.547Z,84.91
2016-12-31T10:18:48.559Z,84.95
2016-12-31T10:19:48.567Z,84.95
2016-12-31T10:20:48.578Z,85.05
2016-12-31T10:21:48.591Z,85.05
2016-12-31T10:22:48.608Z,85.14
2016-12-31T10:23:48.613Z,85.14
2016-12-31T10:24:48.633Z,85.05
2016-12-31T10:25:48.645Z,85.05
2016-12-31T10:26:48.648Z,84.95
2016-12-31T10:27:48.666Z,84.86
2016-12-31T10:28:48.678Z,84.67
2016-12-31T10:29:48.690Z,84.39
2016-12-31T10:30:48.701Z,84.2
2016-12-31T10:31:48.709Z,84.01
2016-12-31T10:32:48.721Z,83.91
2016-12-31T10:33:48.734Z,83.63
2016-12-31T10:34:48.752Z,83.34
2016-12-31T10:35:48.760Z,82.97
2016-12-31T10:36:48.777Z,82.87
2016-12-31T10:37:48.782Z,82.5
2016-12-31T10:38:48.799Z,82.02
2016-12-31T10:39:48.885Z,81.64
2016-12-31T10:40:48.823Z,81.36
2016-12-31T10:41:48.840Z,80.98
2016-12-31T10:42:48.843Z,80.32
2016-12-31T10:43:48.863Z,79.94
2016-12-31T10:44:48.877Z,79.75
2016-12-31T10:45:48.940Z,79.75
2016-12-31T10:46:48.903Z,79.85
2016-12-31T10:47:48.911Z,80.04
2016-12-31T10:48:48.975Z,79.85
2016-12-31T10:49:48.976Z,79.66
2016-12-31T10:50:49.003Z,79.56
2016-12-31T10:51:49.011Z,79.56
2016-12-31T10:52:49.027Z,79.85
2016-12-31T10:53:49.034Z,80.32
2016-12-31T10:54:49.034Z,80.51
2016-12-31T10:55:49.052Z,80.69
2016-12-31T10:56:49.053Z,81.07
2016-12-31T10:57:49.057Z,81.07
2016-12-31T10:58:49.051Z,80.98
2016-12-31T10:59:49.056Z,80.98
2016-12-31T11:00:49.070Z,80.98
2016-12-31T11:01:49.125Z,80.98
2016-12-31T11:02:49.144Z,80.88
2016-12-31T11:03:49.105Z,80.88
2016-12-31T11:04:49.140Z,80.88
2016-12-31T11:05:49.173Z,80.98
2016-12-31T11:06:49.182Z,80.98
2016-12-31T11:07:49.206Z,80.88
2016-12-31T11:08:49.217Z,80.79
2016-12-31T11:09:49.253Z,80.69
2016-12-31T11:10:49.233Z,80.79
2016-12-31T11:11:49.235Z,80.69
2016-12-31T11:12:49.236Z,80.6
2016-12-31T11:13:49.248Z,80.6
2016-12-31T11:14:49.246Z,80.6
2016-12-31T11:15:49.255Z,80.51
2016-12-31T11:16:49.271Z,80.51
2016-12-31T11:17:49.278Z,80.51
2016-12-31T11:18:49.300Z,80.69
2016-12-31T11:19:49.299Z,80.88
2016-12-31T11:20:49.320Z,80.88
2016-12-31T11:21:49.327Z,80.88
2016-12-31T11:22:49.339Z,80.88
2016-12-31T11:23:49.349Z,80.79
2016-12-31T11:24:49.375Z,80.79
2016-12-31T11:25:49.376Z,80.79
2016-12-31T11:26:49.392Z,80.79
2016-12-31T11:27:49.403Z,80.79
2016-12-31T11:28:49.417Z,80.6
2016-12-31T11:29:49.421Z,80.51
2016-12-31T11:30:49.441Z,80.51
2016-12-31T11:31:49.447Z,80.41
2016-12-31T11:32:49.462Z,80.13
2016-12-31T11:33:49.484Z,79.94
2016-12-31T11:34:49.489Z,79.94
2016-12-31T11:35:49.501Z,80.04
2016-12-31T11:36:49.518Z,79.94
2016-12-31T11:37:49.522Z,79.66
2016-12-31T11:38:49.536Z,79.56
2016-12-31T11:39:49.556Z,79.47
2016-12-31T11:40:49.585Z,79.28
2016-12-31T11:41:49.580Z,79.28
2016-12-31T11:42:49.586Z,79.28
2016-12-31T11:43:49.603Z,79.28
2016-12-31T11:44:49.617Z,79.37
2016-12-31T11:45:49.621Z,79.22
2016-12-31T11:46:49.642Z,79.13
2016-12-31T11:47:49.655Z,79.13
2016-12-31T11:48:49.664Z,79.22
2016-12-31T11:49:49.680Z,79.22
2016-12-31T11:50:49.689Z,79.22
2016-12-31T11:51:49.699Z,79.22
2016-12-31T11:52:49.710Z,78.75
2016-12-31T11:53:49.733Z,78.56
2016-12-31T11:54:49.737Z,78.56
2016-12-31T11:55:49.757Z,78.65
2016-12-31T11:56:49.763Z,78.65
2016-12-31T11:57:49.780Z,78.56
2016-12-31T11:58:49.790Z,78.27
2016-12-31T11:59:49.799Z,78.27
2016-12-31T12:00:49.811Z,78.27
2016-12-31T12:01:49.827Z,78.37
2016-12-31T12:02:49.839Z,78.46
2016-12-31T12:03:49.853Z,78.46
2016-12-31T12:04:49.869Z,78.37
2016-12-31T12:05:49.875Z,77.99
2016-12-31T12:06:49.905Z,77.7
2016-12-31T12:07:49.898Z,77.51
2016-12-31T12:08:49.913Z,77.14
2016-12-31T12:09:49.927Z,76.95
2016-12-31T12:10:49.944Z,76.95
2016-12-31T12:11:49.953Z,76.89
2016-12-31T12:12:49.965Z,76.7
2016-12-31T12:13:49.986Z,76.32
2016-12-31T12:14:49.995Z,76.14
2016-12-31T12:15:50.004Z,75.85
2016-12-31T12:16:50.021Z,75.66
2016-12-31T12:17:50.034Z,75.85
2016-12-31T12:18:50.047Z,76.14
2016-12-31T12:19:50.144Z,76.32
2016-12-31T12:20:50.071Z,76.42
2016-12-31T12:21:50.086Z,76.61
2016-12-31T12:22:50.099Z,76.76
2016-12-31T12:23:50.112Z,77.04
2016-12-31T12:24:50.125Z,77.33
2016-12-31T12:25:50.142Z,77.42
2016-12-31T12:26:50.154Z,77.51
2016-12-31T12:27:50.157Z,77.7
2016-12-31T12:28:50.170Z,77.99
2016-12-31T12:29:50.191Z,78.18
2016-12-31T12:30:50.196Z,78.37
2016-12-31T12:31:50.220Z,78.65
2016-12-31T12:32:50.225Z,78.85
2016-12-31T12:33:50.237Z,79.03
2016-12-31T12:34:50.259Z,79.13
2016-12-31T12:35:50.271Z,79.13
2016-12-31T12:36:50.276Z,79.13
2016-12-31T12:37:50.299Z,79.13
2016-12-31T12:38:50.315Z,78.94
2016-12-31T12:39:50.324Z,79.03
2016-12-31T12:40:50.329Z,79.32
2016-12-31T12:41:50.345Z,79.69
2016-12-31T12:42:50.361Z,79.88
2016-12-31T12:43:50.374Z,80.17
2016-12-31T12:44:50.384Z,80.26
2016-12-31T12:45:50.391Z,80.55
2016-12-31T12:46:50.403Z,80.74
2016-12-31T12:47:50.415Z,80.83
2016-12-31T12:48:50.432Z,80.83
2016-12-31T12:49:50.450Z,80.83
2016-12-31T12:50:50.461Z,80.93
2016-12-31T12:51:50.476Z,80.93
2016-12-31T12:52:50.485Z,81.02
2016-12-31T12:53:50.498Z,81.02
2016-12-31T12:54:50.514Z,81.02
2016-12-31T12:55:50.524Z,81.02
2016-12-31T12:56:50.529Z,81.02